createdAt,value
2019-04-23T00:01:05.193Z,14.75
2019-04-23T00:01:49.214Z,14.74
2019-04-23T00:02:50.918Z,14.72
2019-04-23T00:03:46.967Z,14.70
2019-04-23T00:04:51.200Z,14.68
2019-04-23T00:05:48.176Z,14.66
2019-04-23T00:07:03.489Z,14.64
2019-04-23T00:07:59.174Z,14.62
2019-04-23T00:08:58.099Z,14.61
2019-04-23T00:09:47.044Z,14.60
2019-04-23T00:10:51.534Z,14.60
2019-04-23T00:11:54.221Z,14.59
2019-04-23T00:12:49.617Z,14.56
2019-04-23T00:13:56.457Z,14.54
2019-04-23T00:14:55.041Z,14.53
2019-04-23T00:15:53.196Z,14.51
2019-04-23T00:16:52.121Z,14.50
2019-04-23T00:17:48.956Z,14.49
2019-04-23T00:18:46.498Z,14.49
2019-04-23T00:19:48.558Z,14.48
2019-04-23T00:20:54.954Z,14.47
2019-04-23T00:21:47.872Z,14.47
2019-04-23T00:22:54.709Z,14.44
2019-04-23T00:23:57.107Z,14.44
2019-04-23T00:27:01.956Z,14.38
2019-04-23T00:27:55.222Z,14.37
2019-04-23T00:29:00.568Z,14.35
2019-04-23T00:29:53.146Z,14.34
2019-04-23T00:30:54.974Z,14.32
2019-04-23T00:31:56.047Z,14.31
2019-04-23T00:32:46.158Z,14.28
2019-04-23T00:33:52.742Z,14.27
2019-04-23T00:36:03.432Z,14.24
2019-04-23T00:36:53.481Z,14.23
2019-04-23T00:37:51.392Z,14.21
2019-04-23T00:40:51.405Z,14.18
2019-04-23T00:41:54.972Z,14.16
2019-04-23T00:42:51.506Z,14.16
2019-04-23T00:43:57.822Z,14.14
2019-04-23T00:44:51.504Z,14.14
2019-04-23T00:45:59.401Z,14.13
2019-04-23T00:46:48.978Z,14.11
2019-04-23T00:47:52.546Z,14.10
2019-04-23T00:48:54.431Z,14.08
2019-04-23T00:49:50.889Z,14.08
2019-04-23T00:50:52.449Z,14.06
2019-04-23T00:51:54.812Z,14.05
2019-04-23T00:52:45.855Z,14.05
2019-04-23T00:53:43.825Z,14.05
2019-04-23T00:55:52.773Z,14.02
2019-04-23T00:56:54.478Z,14.00
2019-04-23T00:57:50.145Z,13.99
2019-04-23T00:58:49.499Z,13.99
2019-04-23T00:59:53.618Z,13.97
2019-04-23T01:01:56.817Z,13.96
2019-04-23T01:02:52.894Z,13.95
2019-04-23T01:03:48.520Z,13.95
2019-04-23T01:04:48.086Z,13.94
2019-04-23T01:05:48.894Z,13.92
2019-04-23T01:06:54.547Z,13.89
2019-04-23T01:08:50.736Z,13.88
2019-04-23T01:09:52.453Z,13.86
2019-04-23T01:10:54.012Z,13.86
2019-04-23T01:11:52.137Z,13.85
2019-04-23T01:12:51.692Z,13.84
2019-04-23T01:13:48.957Z,13.83
2019-04-23T01:14:48.221Z,13.82
2019-04-23T01:16:45.862Z,13.80
2019-04-23T01:19:49.468Z,13.77
2019-04-23T01:20:50.293Z,13.75
2019-04-23T01:21:28.451Z,13.74
2019-04-23T01:22:27.414Z,13.73
2019-04-23T01:23:34.930Z,13.73
2019-04-23T01:24:30.717Z,13.72
2019-04-23T01:25:39.594Z,13.72
2019-04-23T01:26:50.043Z,13.71
2019-04-23T01:28:55.769Z,13.69
2019-04-23T01:29:58.601Z,13.68
2019-04-23T01:30:59.765Z,13.68
2019-04-23T01:31:51.752Z,13.67
2019-04-23T01:32:54.812Z,13.66
2019-04-23T01:33:53.209Z,13.65
2019-04-23T01:35:05.369Z,13.64
2019-04-23T01:36:03.995Z,13.65
2019-04-23T01:36:51.583Z,13.63
2019-04-23T01:37:46.678Z,13.63
2019-04-23T01:38:54.999Z,13.63
2019-04-23T01:39:54.444Z,13.62
2019-04-23T01:40:47.197Z,13.61
2019-04-23T01:41:58.667Z,13.61
2019-04-23T01:43:03.022Z,13.60
2019-04-23T01:44:06.996Z,13.59
2019-04-23T01:45:13.274Z,13.59
2019-04-23T01:45:50.262Z,13.57
2019-04-23T01:46:54.480Z,13.57
2019-04-23T01:48:51.914Z,13.55
2019-04-23T01:50:52.848Z,13.54
2019-04-23T01:51:55.729Z,13.53
2019-04-23T01:53:49.774Z,13.52
2019-04-23T01:54:59.122Z,13.50
2019-04-23T01:55:52.999Z,13.49
2019-04-23T01:56:47.481Z,13.48
2019-04-23T01:58:52.992Z,13.45
2019-04-23T01:59:58.369Z,13.44
2019-04-23T02:00:54.489Z,13.43
2019-04-23T02:01:50.374Z,13.43
2019-04-23T02:02:55.563Z,13.42
2019-04-23T02:04:01.582Z,13.40
2019-04-23T02:05:07.199Z,13.40
2019-04-23T02:05:55.807Z,13.39
2019-04-23T02:06:53.712Z,13.37
2019-04-23T02:07:56.903Z,13.38
2019-04-23T02:08:52.458Z,13.36
2019-04-23T02:09:58.674Z,13.34
2019-04-23T02:10:56.423Z,13.35
2019-04-23T02:11:55.223Z,13.35
2019-04-23T02:12:55.640Z,13.36
2019-04-23T02:14:11.246Z,13.34
2019-04-23T02:14:57.866Z,13.32
2019-04-23T02:16:05.103Z,13.32
2019-04-23T02:16:51.537Z,13.31
2019-04-23T02:18:00.414Z,13.31
2019-04-23T02:19:11.440Z,13.30
2019-04-23T02:19:53.221Z,13.29
2019-04-23T02:20:53.765Z,13.28
2019-04-23T02:22:01.505Z,13.27
2019-04-23T02:23:47.976Z,13.24
2019-04-23T02:24:59.456Z,13.24
2019-04-23T02:26:50.803Z,13.23
2019-04-23T02:28:01.846Z,13.24
2019-04-23T02:28:57.621Z,13.23
2019-04-23T02:30:12.539Z,13.23
2019-04-23T02:31:12.005Z,13.22
2019-04-23T02:33:12.698Z,13.23
2019-04-23T02:34:00.634Z,13.22
2019-04-23T02:35:17.040Z,13.21
2019-04-23T02:35:58.716Z,13.23
2019-04-23T02:40:08.686Z,13.18
2019-04-23T02:41:04.580Z,13.16
2019-04-23T02:42:09.115Z,13.16
2019-04-23T02:43:09.510Z,13.16
2019-04-23T02:44:06.982Z,13.15
2019-04-23T02:44:56.434Z,13.14
2019-04-23T02:46:01.910Z,13.13
2019-04-23T02:47:17.133Z,13.13
2019-04-23T02:48:10.758Z,13.14
2019-04-23T02:50:12.734Z,13.11
2019-04-23T02:51:10.864Z,13.10
2019-04-23T02:51:59.392Z,13.10
2019-04-23T02:53:09.295Z,13.08
2019-04-23T02:54:12.710Z,13.08
2019-04-23T02:55:00.902Z,13.08
2019-04-23T02:56:04.406Z,13.08
2019-04-23T02:58:07.762Z,13.07
2019-04-23T02:59:05.720Z,13.08
2019-04-23T03:00:20.980Z,13.10
2019-04-23T03:02:12.112Z,13.09
2019-04-23T03:03:14.283Z,13.10
2019-04-23T03:03:59.837Z,13.09
2019-04-23T03:04:56.957Z,13.10
2019-04-23T03:07:03.365Z,13.08
2019-04-23T03:07:59.946Z,13.07
2019-04-23T03:08:57.259Z,13.06
2019-04-23T03:10:02.907Z,13.05
2019-04-23T03:11:15.555Z,13.05
2019-04-23T03:12:00.581Z,13.05
2019-04-23T03:13:21.288Z,13.04
2019-04-23T03:14:00.317Z,13.05
2019-04-23T03:15:15.059Z,13.04
2019-04-23T03:16:06.274Z,13.04
2019-04-23T03:16:56.702Z,13.03
2019-04-23T03:18:16.330Z,13.02
2019-04-23T03:20:10.558Z,13.02
2019-04-23T03:21:15.484Z,13.02
2019-04-23T03:21:56.134Z,13.01
2019-04-23T03:23:03.614Z,13.03
2019-04-23T03:24:05.257Z,13.02
2019-04-23T03:25:56.911Z,13.01
2019-04-23T03:27:09.866Z,13.01
2019-04-23T03:27:56.428Z,13.01
2019-04-23T03:30:42.394Z,12.99
2019-04-23T03:32:31.067Z,13.00
2019-04-23T03:38:16.556Z,12.94
2019-04-23T03:40:11.467Z,12.94
2019-04-23T03:41:07.081Z,12.93
2019-04-23T03:42:02.779Z,12.92
2019-04-23T03:43:46.554Z,12.92
2019-04-23T03:46:11.593Z,12.92
2019-04-23T03:48:03.075Z,12.92
2019-04-23T03:48:54.874Z,12.92
2019-04-23T03:50:14.784Z,12.91
2019-04-23T03:50:52.962Z,12.90
2019-04-23T03:52:02.072Z,12.90
2019-04-23T03:52:55.251Z,12.90
2019-04-23T03:54:21.834Z,12.87
2019-04-23T03:54:48.692Z,12.89
2019-04-23T03:56:05.065Z,12.90
2019-04-23T03:57:54.163Z,12.90
2019-04-23T03:59:03.359Z,12.92
2019-04-23T04:00:58.979Z,12.93
2019-04-23T04:03:26.985Z,12.93
2019-04-23T04:04:22.721Z,12.94
2019-04-23T04:04:55.851Z,12.94
2019-04-23T04:08:10.278Z,12.97
2019-04-23T04:09:08.133Z,12.99
2019-04-23T04:09:51.711Z,13.02
2019-04-23T04:11:09.616Z,13.04
2019-04-23T04:11:54.878Z,13.05
2019-04-23T04:12:56.849Z,13.08
2019-04-23T04:14:30.209Z,13.10
2019-04-23T04:16:00.798Z,13.12
2019-04-23T04:18:11.774Z,13.14
2019-04-23T04:19:56.533Z,13.19
2019-04-23T04:21:01.078Z,13.20
2019-04-23T04:21:58.575Z,13.21
2019-04-23T04:23:07.820Z,13.23
2019-04-23T04:25:02.434Z,13.26
2019-04-23T04:25:56.534Z,13.27
2019-04-23T04:28:06.654Z,13.32
2019-04-23T04:29:01.278Z,13.35
2019-04-23T04:30:00.886Z,13.36
2019-04-23T04:30:54.537Z,13.39
2019-04-23T04:33:07.502Z,13.43
2019-04-23T04:36:10.589Z,13.51
2019-04-23T04:37:27.287Z,13.53
2019-04-23T04:38:25.658Z,13.57
2019-04-23T04:38:54.444Z,13.61
2019-04-23T04:41:57.040Z,13.74
2019-04-23T04:43:11.303Z,13.77
2019-04-23T04:44:17.558Z,13.83
2019-04-23T04:47:55.629Z,13.99
2019-04-23T04:49:07.911Z,14.03
2019-04-23T04:51:00.038Z,14.09
2019-04-23T04:52:13.473Z,14.11
2019-04-23T04:54:55.950Z,14.21
2019-04-23T04:56:06.870Z,14.25
2019-04-23T04:58:13.098Z,14.29
2019-04-23T04:59:11.908Z,14.34
2019-04-23T05:03:17.944Z,14.41
2019-04-23T05:03:43.272Z,14.45
2019-04-23T05:05:05.578Z,14.47
2019-04-23T05:07:56.294Z,14.57
2019-04-23T05:11:04.859Z,14.65
2019-04-23T05:13:11.925Z,14.71
2019-04-23T05:14:08.287Z,14.73
2019-04-23T05:15:14.268Z,14.76
2019-04-23T05:15:50.074Z,14.81
2019-04-23T05:16:58.728Z,14.87
2019-04-23T05:17:59.926Z,14.97
2019-04-23T05:19:02.009Z,15.13
2019-04-23T05:21:00.233Z,15.28
2019-04-23T05:21:58.783Z,15.33
2019-04-23T05:23:09.175Z,15.32
2019-04-23T05:23:52.401Z,15.34
2019-04-23T05:24:52.537Z,15.39
2019-04-23T05:25:49.946Z,15.44
2019-04-23T05:26:46.493Z,15.47
2019-04-23T05:28:05.622Z,15.52
2019-04-23T05:29:06.304Z,15.60
2019-04-23T05:29:54.394Z,15.77
2019-04-23T05:31:12.147Z,15.96
2019-04-23T05:31:47.013Z,16.11
2019-04-23T05:32:57.932Z,16.31
2019-04-23T05:33:52.318Z,16.45
2019-04-23T05:34:50.437Z,16.52
2019-04-23T05:38:10.292Z,16.65
2019-04-23T05:39:54.630Z,17.08
2019-04-23T05:40:53.615Z,17.13
2019-04-23T05:42:52.174Z,17.42
2019-04-23T05:43:52.565Z,17.45
2019-04-23T05:45:14.395Z,17.43
2019-04-23T05:45:49.563Z,17.58
2019-04-23T05:46:55.679Z,17.99
2019-04-23T05:48:04.577Z,18.56
2019-04-23T05:48:52.337Z,18.79
2019-04-23T05:49:55.026Z,19.01
2019-04-23T05:50:57.757Z,19.31
2019-04-23T05:52:52.799Z,19.76
2019-04-23T05:53:51.289Z,19.94
2019-04-23T05:54:56.284Z,20.25
2019-04-23T05:55:58.444Z,20.61
2019-04-23T05:56:54.106Z,20.85
2019-04-23T05:57:52.475Z,21.19
2019-04-23T05:58:55.867Z,21.60
2019-04-23T05:59:46.796Z,22.11
2019-04-23T06:01:02.591Z,22.59
2019-04-23T06:02:56.635Z,23.32
2019-04-23T06:03:56.741Z,23.64
2019-04-23T06:04:51.125Z,23.95
2019-04-23T06:05:54.084Z,24.21
2019-04-23T06:08:12.003Z,24.61
2019-04-23T06:08:53.258Z,24.82
2019-04-23T06:09:53.242Z,25.04
2019-04-23T06:11:00.837Z,25.24
2019-04-23T06:12:55.796Z,25.42
2019-04-23T06:13:43.028Z,25.49
2019-04-23T06:14:52.526Z,25.55
2019-04-23T06:15:50.421Z,25.66
2019-04-23T06:17:02.111Z,25.75
2019-04-23T06:17:55.834Z,25.82
2019-04-23T06:18:59.252Z,25.88
2019-04-23T06:19:49.585Z,25.96
2019-04-23T06:22:04.448Z,26.31
2019-04-23T06:22:49.540Z,26.49
2019-04-23T06:23:55.475Z,26.62
2019-04-23T06:24:49.156Z,26.72
2019-04-23T06:26:11.232Z,26.85
2019-04-23T06:26:54.287Z,26.98
2019-04-23T06:27:54.397Z,27.08
2019-04-23T06:28:50.903Z,27.16
2019-04-23T06:30:01.124Z,27.25
2019-04-23T06:30:58.920Z,27.34
2019-04-23T06:31:50.883Z,27.47
2019-04-23T06:32:53.612Z,27.60
2019-04-23T06:33:48.116Z,27.70
2019-04-23T06:35:11.707Z,27.81
2019-04-23T06:35:51.556Z,27.94
2019-04-23T06:36:51.246Z,28.09
2019-04-23T06:38:14.397Z,28.18
2019-04-23T06:39:48.090Z,28.48
2019-04-23T06:40:48.827Z,28.75
2019-04-23T06:41:53.058Z,28.96
2019-04-23T06:42:53.240Z,29.10
2019-04-23T06:44:00.315Z,29.21
2019-04-23T06:44:54.920Z,29.24
2019-04-23T06:45:44.516Z,29.27
2019-04-23T06:47:56.489Z,29.43
2019-04-23T06:48:47.006Z,29.52
2019-04-23T06:49:54.511Z,29.69
2019-04-23T06:52:02.345Z,29.91
2019-04-23T06:52:45.512Z,29.97
2019-04-23T06:53:55.124Z,29.97
2019-04-23T06:54:56.175Z,30.02
2019-04-23T06:55:49.539Z,30.05
2019-04-23T06:57:00.693Z,30.12
2019-04-23T06:57:52.023Z,30.23
2019-04-23T06:58:57.228Z,30.39
2019-04-23T06:59:48.609Z,30.53
2019-04-23T07:00:51.277Z,30.67
2019-04-23T07:01:47.881Z,30.74
2019-04-23T07:02:54.065Z,30.79
2019-04-23T07:03:52.220Z,30.87
2019-04-23T07:04:57.151Z,30.92
2019-04-23T07:05:55.466Z,31.04
2019-04-23T07:06:56.586Z,31.15
2019-04-23T07:07:55.246Z,31.22
2019-04-23T07:09:05.443Z,31.22
2019-04-23T07:09:45.311Z,31.27
2019-04-23T07:10:54.307Z,31.34
2019-04-23T07:12:50.825Z,31.54
2019-04-23T07:15:00.866Z,31.84
2019-04-23T07:15:55.260Z,32.00
2019-04-23T07:16:51.561Z,32.22
2019-04-23T07:17:51.979Z,32.42
2019-04-23T07:18:47.013Z,32.62
2019-04-23T07:19:48.441Z,32.81
2019-04-23T07:20:50.594Z,32.94
2019-04-23T07:21:50.596Z,33.08
2019-04-23T07:22:53.875Z,33.16
2019-04-23T07:24:08.669Z,33.18
2019-04-23T07:24:50.368Z,33.17
2019-04-23T07:25:59.815Z,33.20
2019-04-23T07:26:42.495Z,33.30
2019-04-23T07:27:49.367Z,33.40
2019-04-23T07:28:53.341Z,33.49
2019-04-23T07:30:00.127Z,33.59
2019-04-23T07:30:51.156Z,33.71
2019-04-23T07:32:50.509Z,33.73
2019-04-23T07:34:55.313Z,33.84
2019-04-23T07:35:51.929Z,33.92
2019-04-23T07:36:47.362Z,33.95
2019-04-23T07:37:59.588Z,33.97
2019-04-23T07:39:59.041Z,34.02
2019-04-23T07:40:46.636Z,34.09
2019-04-23T07:41:56.001Z,34.19
2019-04-23T07:42:51.094Z,34.31
2019-04-23T07:43:54.778Z,34.50
2019-04-23T07:44:56.427Z,34.63
2019-04-23T07:45:54.741Z,34.75
2019-04-23T07:47:03.303Z,34.88
2019-04-23T07:47:54.093Z,34.99
2019-04-23T07:48:47.954Z,35.03
2019-04-23T07:50:04.117Z,35.03
2019-04-23T07:50:49.439Z,34.98
2019-04-23T07:51:56.904Z,34.97
2019-04-23T07:52:58.650Z,34.95
2019-04-23T07:53:58.189Z,34.90
2019-04-23T07:54:58.697Z,34.84
2019-04-23T07:55:56.835Z,34.78
2019-04-23T07:56:54.018Z,34.78
2019-04-23T07:58:00.740Z,34.82
2019-04-23T07:58:44.776Z,34.94
2019-04-23T07:59:59.196Z,35.05
2019-04-23T08:01:52.359Z,35.28
2019-04-23T08:02:57.594Z,35.31
2019-04-23T08:03:48.206Z,35.32
2019-04-23T08:05:43.694Z,35.44
2019-04-23T08:06:56.038Z,35.61
2019-04-23T08:07:54.181Z,35.76
2019-04-23T08:08:50.868Z,35.86
2019-04-23T08:09:53.302Z,35.90
2019-04-23T08:11:03.071Z,35.91
2019-04-23T08:11:54.500Z,35.90
2019-04-23T08:12:56.289Z,35.93
2019-04-23T08:14:53.222Z,35.94
2019-04-23T08:15:48.085Z,35.99
2019-04-23T08:16:46.590Z,36.01
2019-04-23T08:17:56.113Z,36.03
2019-04-23T08:19:56.250Z,36.12
2019-04-23T08:20:49.048Z,36.12
2019-04-23T08:21:58.160Z,36.06
2019-04-23T08:22:45.504Z,36.02
2019-04-23T08:23:52.199Z,36.02
2019-04-23T08:24:57.293Z,36.03
2019-04-23T08:25:55.920Z,36.00
2019-04-23T08:27:48.526Z,35.96
2019-04-23T08:29:01.071Z,35.93
2019-04-23T08:29:45.851Z,35.83
2019-04-23T08:30:57.213Z,35.69
2019-04-23T08:31:52.849Z,35.49
2019-04-23T08:32:52.147Z,35.28
2019-04-23T08:33:57.355Z,35.12
2019-04-23T08:34:58.627Z,34.99
2019-04-23T08:35:50.681Z,34.89
2019-04-23T08:36:50.170Z,34.85
2019-04-23T08:38:00.952Z,34.81
2019-04-23T08:38:57.536Z,34.74
2019-04-23T08:39:49.295Z,34.60
2019-04-23T08:40:55.645Z,34.46
2019-04-23T08:43:12.904Z,34.34
2019-04-23T08:44:01.131Z,34.33
2019-04-23T08:45:00.876Z,34.28
2019-04-23T08:45:46.255Z,34.22
2019-04-23T08:46:56.989Z,34.13
2019-04-23T08:47:56.534Z,34.07
2019-04-23T08:48:55.721Z,33.95
2019-04-23T08:49:47.649Z,33.80
2019-04-23T08:50:44.193Z,33.67
2019-04-23T08:51:51.697Z,33.57
2019-04-23T08:53:02.223Z,33.44
2019-04-23T08:53:47.540Z,33.29
2019-04-23T08:54:58.062Z,33.17
2019-04-23T08:55:49.945Z,33.08
2019-04-23T08:56:56.949Z,32.92
2019-04-23T08:57:43.952Z,32.73
2019-04-23T08:58:50.865Z,32.53
2019-04-23T08:59:47.355Z,32.27
2019-04-23T09:00:55.352Z,31.96
2019-04-23T09:02:09.310Z,31.65
2019-04-23T09:02:55.034Z,31.41
2019-04-23T09:03:49.354Z,31.21
2019-04-23T09:04:55.312Z,30.96
2019-04-23T09:06:53.351Z,30.61
2019-04-23T09:07:55.221Z,30.52
2019-04-23T09:09:10.431Z,30.44
2019-04-23T09:09:50.889Z,30.36
2019-04-23T09:10:55.888Z,30.28
2019-04-23T09:12:53.798Z,29.90
2019-04-23T09:14:52.397Z,29.51
2019-04-23T09:15:49.916Z,29.33
2019-04-23T09:16:52.849Z,29.23
2019-04-23T09:18:47.346Z,29.19
2019-04-23T09:20:06.541Z,29.20
2019-04-23T09:20:41.417Z,29.25
2019-04-23T09:21:53.288Z,29.24
2019-04-23T09:22:46.461Z,29.22
2019-04-23T09:25:54.366Z,29.14
2019-04-23T09:26:51.746Z,29.08
2019-04-23T09:27:44.173Z,29.03
2019-04-23T09:30:08.014Z,28.98
2019-04-23T09:32:49.193Z,28.99
2019-04-23T09:33:54.845Z,29.04
2019-04-23T09:34:58.748Z,29.11
2019-04-23T09:35:50.599Z,29.19
2019-04-23T09:36:53.755Z,29.28
2019-04-23T09:39:51.264Z,29.25
2019-04-23T09:41:42.136Z,29.18
2019-04-23T09:42:54.566Z,29.19
2019-04-23T09:44:21.625Z,29.19
2019-04-23T09:45:48.624Z,29.15
2019-04-23T09:46:53.273Z,29.15
2019-04-23T09:47:55.199Z,29.16
2019-04-23T09:48:58.015Z,29.13
2019-04-23T09:49:46.583Z,29.10
2019-04-23T09:50:52.682Z,29.09
2019-04-23T09:51:54.470Z,29.08
2019-04-23T09:53:01.828Z,29.11
2019-04-23T09:53:51.224Z,29.19
2019-04-23T09:55:01.661Z,29.27
2019-04-23T09:55:41.790Z,29.34
2019-04-23T09:56:51.184Z,29.41
2019-04-23T09:57:52.283Z,29.45
2019-04-23T09:58:59.173Z,29.52
2019-04-23T09:59:49.050Z,29.64
2019-04-23T10:00:59.049Z,29.74
2019-04-23T10:01:40.935Z,29.82
2019-04-23T10:02:34.281Z,29.90
2019-04-23T10:03:38.488Z,29.96
2019-04-23T10:04:36.614Z,30.03
2019-04-23T10:05:30.897Z,30.11
2019-04-23T10:06:26.530Z,30.25
2019-04-23T10:07:34.907Z,30.32
2019-04-23T10:08:27.950Z,30.34
2019-04-23T10:09:22.712Z,30.38
2019-04-23T10:10:20.768Z,30.53
2019-04-23T10:11:22.049Z,30.77
2019-04-23T10:12:22.016Z,31.00
2019-04-23T10:13:21.905Z,31.26
2019-04-23T10:14:20.829Z,31.53
2019-04-23T10:15:26.237Z,31.79
2019-04-23T10:16:25.295Z,32.05
2019-04-23T10:17:20.759Z,32.31
2019-04-23T10:18:20.388Z,32.54
2019-04-23T10:19:20.368Z,32.72
2019-04-23T10:20:20.669Z,32.91
2019-04-23T10:21:21.469Z,33.08
2019-04-23T10:22:20.333Z,33.25
2019-04-23T10:23:21.273Z,33.38
2019-04-23T10:24:21.069Z,33.50
2019-04-23T10:25:21.005Z,33.67
2019-04-23T10:26:21.742Z,33.87
2019-04-23T10:27:21.100Z,34.07
2019-04-23T10:28:22.104Z,34.21
2019-04-23T10:29:20.257Z,34.30
2019-04-23T10:30:21.719Z,34.43
2019-04-23T10:31:20.921Z,34.52
2019-04-23T10:32:21.743Z,34.59
2019-04-23T10:33:21.314Z,34.57
2019-04-23T10:34:21.153Z,34.60
2019-04-23T10:35:32.156Z,34.52
2019-04-23T10:36:25.035Z,34.40
2019-04-23T10:37:35.686Z,34.18
2019-04-23T10:38:22.563Z,33.74
2019-04-23T10:39:25.834Z,32.90
2019-04-23T10:40:28.093Z,31.70
2019-04-23T10:41:22.550Z,30.27
2019-04-23T10:42:21.847Z,28.81
2019-04-23T10:43:20.673Z,27.50
2019-04-23T10:44:21.477Z,26.50
2019-04-23T10:45:28.928Z,25.75
2019-04-23T10:46:42.974Z,25.21
2019-04-23T10:47:45.323Z,24.81
2019-04-23T10:48:49.414Z,24.50
2019-04-23T10:52:53.594Z,23.84
2019-04-23T10:53:52.392Z,23.73
2019-04-23T10:54:45.418Z,23.64
2019-04-23T10:56:51.688Z,23.51
2019-04-23T10:57:45.895Z,23.44
2019-04-23T10:58:45.492Z,23.37
2019-04-23T10:59:49.000Z,23.30
2019-04-23T11:00:55.726Z,23.21
2019-04-23T11:01:52.938Z,23.13
2019-04-23T11:02:48.902Z,23.04
2019-04-23T11:06:08.776Z,22.81
2019-04-23T11:06:49.944Z,22.77
2019-04-23T11:07:48.802Z,22.74
2019-04-23T11:08:50.122Z,22.74
2019-04-23T11:10:00.677Z,22.73
2019-04-23T11:10:50.696Z,22.72
2019-04-23T11:11:52.472Z,22.69
2019-04-23T11:12:44.909Z,22.68
2019-04-23T11:14:53.400Z,22.65
2019-04-23T11:16:14.522Z,22.65
2019-04-23T11:20:01.275Z,22.63
2019-04-23T11:21:56.528Z,22.66
2019-04-23T11:22:56.784Z,22.68
2019-04-23T11:23:50.185Z,22.68
2019-04-23T11:24:50.280Z,22.66
2019-04-23T11:25:44.898Z,22.66
2019-04-23T11:26:49.589Z,22.66
2019-04-23T11:27:48.959Z,22.66
2019-04-23T11:28:44.219Z,22.65
2019-04-23T11:29:48.633Z,22.67
2019-04-23T11:31:03.488Z,22.68
2019-04-23T11:32:19.631Z,22.70
2019-04-23T11:33:04.477Z,22.71
2019-04-23T11:33:52.379Z,22.70
2019-04-23T11:36:01.457Z,22.79
2019-04-23T11:38:06.560Z,22.88
2019-04-23T11:38:56.093Z,22.92
2019-04-23T11:39:55.720Z,22.97
2019-04-23T11:40:41.790Z,23.01
2019-04-23T11:42:57.942Z,23.03
2019-04-23T11:43:49.035Z,23.05
2019-04-23T11:44:47.292Z,23.05
2019-04-23T11:49:53.390Z,23.15
2019-04-23T11:52:03.226Z,23.15
2019-04-23T11:53:01.237Z,23.14
2019-04-23T11:53:50.884Z,23.11
2019-04-23T11:54:55.149Z,23.09
2019-04-23T11:55:55.711Z,23.08
2019-04-23T11:57:14.213Z,23.06
2019-04-23T11:57:59.217Z,23.08
2019-04-23T11:58:44.652Z,23.09
2019-04-23T12:01:02.251Z,23.15
2019-04-23T12:01:52.195Z,23.18
2019-04-23T12:02:49.618Z,23.23
2019-04-23T12:04:02.780Z,23.26
2019-04-23T12:04:54.484Z,23.32
2019-04-23T12:05:50.613Z,23.32
2019-04-23T12:07:50.915Z,23.36
2019-04-23T12:10:02.761Z,23.44
2019-04-23T12:11:08.738Z,23.47
2019-04-23T12:11:58.118Z,23.49
2019-04-23T12:13:15.815Z,23.53
2019-04-23T12:13:52.599Z,23.55
2019-04-23T12:15:07.425Z,23.60
2019-04-23T12:15:50.570Z,23.61
2019-04-23T12:17:04.202Z,23.63
2019-04-23T12:19:12.879Z,23.61
2019-04-23T12:20:41.273Z,23.59
2019-04-23T12:21:52.831Z,23.59
2019-04-23T12:23:01.197Z,23.58
2019-04-23T12:25:06.415Z,23.57
2019-04-23T12:25:51.611Z,23.58
2019-04-23T12:26:56.437Z,23.60
2019-04-23T12:28:04.753Z,23.62
2019-04-23T12:28:50.872Z,23.64
2019-04-23T12:29:52.697Z,23.65
2019-04-23T12:30:57.335Z,23.66
2019-04-23T12:31:47.107Z,23.65
2019-04-23T12:32:53.778Z,23.63
2019-04-23T12:33:53.633Z,23.63
2019-04-23T12:35:40.791Z,23.64
2019-04-23T12:38:03.274Z,23.63
2019-04-23T12:38:49.273Z,23.63
2019-04-23T12:39:51.123Z,23.63
2019-04-23T12:40:46.549Z,23.64
2019-04-23T12:41:52.762Z,23.64
2019-04-23T12:42:58.686Z,23.65
2019-04-23T12:43:49.972Z,23.64
2019-04-23T12:44:58.111Z,23.65
2019-04-23T12:45:42.495Z,23.67
2019-04-23T12:49:07.576Z,23.72
2019-04-23T12:50:05.151Z,23.76
2019-04-23T12:50:50.094Z,23.79
2019-04-23T12:51:55.984Z,23.82
2019-04-23T12:53:39.926Z,23.89
2019-04-23T12:55:02.862Z,23.94
2019-04-23T12:55:43.834Z,23.96
2019-04-23T12:56:56.849Z,23.98
2019-04-23T12:58:08.639Z,23.98
2019-04-23T12:58:41.556Z,23.99
2019-04-23T12:59:50.375Z,23.96
2019-04-23T13:00:38.866Z,23.94
2019-04-23T13:01:49.759Z,23.93
2019-04-23T13:03:45.572Z,23.95
2019-04-23T13:04:48.376Z,23.96
2019-04-23T13:05:35.939Z,24.00
2019-04-23T13:06:47.137Z,23.99
2019-04-23T13:07:55.512Z,24.00
2019-04-23T13:09:01.411Z,24.02
2019-04-23T13:09:52.499Z,24.03
2019-04-23T13:11:49.679Z,24.07
2019-04-23T13:12:52.884Z,24.07
2019-04-23T13:14:49.098Z,24.06
2019-04-23T13:15:47.936Z,24.04
2019-04-23T13:16:58.986Z,24.01
2019-04-23T13:17:52.427Z,23.97
2019-04-23T13:19:16.870Z,23.95
2019-04-23T13:22:00.220Z,23.86
2019-04-23T13:23:47.427Z,23.80
2019-04-23T13:24:48.744Z,23.78
2019-04-23T13:25:52.844Z,23.76
2019-04-23T13:26:44.578Z,23.76
2019-04-23T13:27:55.587Z,23.76
2019-04-23T13:28:45.841Z,23.77
2019-04-23T13:29:50.091Z,23.81
2019-04-23T13:31:39.986Z,23.82
2019-04-23T13:32:55.910Z,23.80
2019-04-23T13:33:58.104Z,23.79
2019-04-23T13:35:12.864Z,23.77
2019-04-23T13:35:53.654Z,23.77
2019-04-23T13:36:53.958Z,23.75
2019-04-23T13:37:56.836Z,23.74
2019-04-23T13:39:45.414Z,23.72
2019-04-23T13:41:46.326Z,23.75
2019-04-23T13:43:42.583Z,23.77
2019-04-23T13:44:47.001Z,23.81
2019-04-23T13:46:49.830Z,23.89
2019-04-23T13:47:57.355Z,23.91
2019-04-23T13:48:44.932Z,23.95
2019-04-23T13:49:52.607Z,23.99
2019-04-23T13:51:46.622Z,24.03
2019-04-23T13:54:01.627Z,24.01
2019-04-23T13:55:44.460Z,24.03
2019-04-23T13:59:12.127Z,24.11
2019-04-23T13:59:48.494Z,24.12
2019-04-23T14:00:52.607Z,24.14
2019-04-23T14:01:39.944Z,24.15
2019-04-23T14:03:06.230Z,24.17
2019-04-23T14:03:50.493Z,24.21
2019-04-23T14:04:50.789Z,24.22
2019-04-23T14:05:52.789Z,24.23
2019-04-23T14:06:51.453Z,24.25
2019-04-23T14:10:48.056Z,24.27
2019-04-23T14:11:40.423Z,24.27
2019-04-23T14:13:01.893Z,24.25
2019-04-23T14:15:02.326Z,24.21
2019-04-23T14:15:53.913Z,24.18
2019-04-23T14:17:15.260Z,24.17
2019-04-23T14:18:11.061Z,24.15
2019-04-23T14:18:55.908Z,24.14
2019-04-23T14:19:45.646Z,24.14
2019-04-23T14:20:53.221Z,24.17
2019-04-23T14:21:45.975Z,24.20
2019-04-23T14:22:59.983Z,24.20
2019-04-23T14:26:05.243Z,24.29
2019-04-23T14:26:50.872Z,24.29
2019-04-23T14:27:58.006Z,24.30
2019-04-23T14:28:44.501Z,24.30
2019-04-23T14:29:56.055Z,24.30
2019-04-23T14:30:53.414Z,24.30
2019-04-23T14:31:43.421Z,24.29
2019-04-23T14:32:53.946Z,24.28
2019-04-23T14:34:54.242Z,24.29
2019-04-23T14:35:45.502Z,24.30
2019-04-23T14:36:52.726Z,24.32
2019-04-23T14:38:02.431Z,24.32
2019-04-23T14:39:47.606Z,24.36
2019-04-23T14:42:06.887Z,24.38
2019-04-23T14:43:03.555Z,24.38
2019-04-23T14:44:54.549Z,24.46
2019-04-23T14:46:13.184Z,24.50
2019-04-23T14:46:53.000Z,24.54
2019-04-23T14:48:00.929Z,24.57
2019-04-23T14:48:55.507Z,24.57
2019-04-23T14:50:09.288Z,24.57
2019-04-23T14:51:09.826Z,24.57
2019-04-23T14:52:58.886Z,24.53
2019-04-23T14:53:43.976Z,24.51
2019-04-23T14:55:22.422Z,24.49
2019-04-23T14:56:44.856Z,24.41
2019-04-23T14:58:06.284Z,24.38
2019-04-23T14:58:57.950Z,24.37
2019-04-23T14:59:48.018Z,24.36
2019-04-23T15:00:54.114Z,24.35
2019-04-23T15:02:57.296Z,24.28
2019-04-23T15:03:56.899Z,24.27
2019-04-23T15:04:47.671Z,24.26
2019-04-23T15:05:56.384Z,24.25
2019-04-23T15:06:54.858Z,24.25
2019-04-23T15:09:57.616Z,24.31
2019-04-23T15:10:57.051Z,24.35
2019-04-23T15:11:52.710Z,24.37
2019-04-23T15:12:54.047Z,24.39
2019-04-23T15:14:52.401Z,24.41
2019-04-23T15:15:55.653Z,24.42
2019-04-23T15:16:56.408Z,24.40
2019-04-23T15:17:49.613Z,24.39
2019-04-23T15:20:51.746Z,24.28
2019-04-23T15:21:53.764Z,24.24
2019-04-23T15:23:09.166Z,24.21
2019-04-23T15:24:00.444Z,24.17
2019-04-23T15:24:50.163Z,24.15
2019-04-23T15:26:50.923Z,24.13
2019-04-23T15:28:06.031Z,24.12
2019-04-23T15:28:26.112Z,24.12
2019-04-23T15:29:33.337Z,24.10
2019-04-23T15:30:45.908Z,24.09
2019-04-23T15:31:48.816Z,24.07
2019-04-23T15:32:54.408Z,24.08
2019-04-23T15:33:57.327Z,24.08
2019-04-23T15:34:47.262Z,24.06
2019-04-23T15:38:16.413Z,24.08
2019-04-23T15:38:55.870Z,24.11
2019-04-23T15:39:49.468Z,24.12
2019-04-23T15:40:45.428Z,24.13
2019-04-23T15:42:08.106Z,24.13
2019-04-23T15:42:50.788Z,24.13
2019-04-23T15:43:52.221Z,24.14
2019-04-23T15:44:49.043Z,24.13
2019-04-23T15:45:52.559Z,24.11